Main page
METAR-TAF:

METAR-TAF

Airports :

Guilin, China

Guilin Liangjiang International Airport

latitude: 25-20N, longitude: 110-18E, elevation: 166 m

Current weather observation

The report was made 40 minutes ago, at 11:00 UTC
Wind 2 kt from variable directions
Temperature 20°C
Humidity 88%
Pressure 1015 hPa
Visibility: 6000 m
Scattered clouds at a height of 2000 ft
Overcast at a height of 3300 ft

METAR: ZGKL 261100Z VRB01MPS 6000 SCT020 OVC033 20/18 Q1015 NOSIG

Time: 19:40 (11:40 UTC)

Forecast

The report was made 2 hours and 31 minutes ago, at 09:09 UTC
Forecast valid from 26 at 12 UTC to 27 at 12 UTC
Wind 2 kt from variable directions
Visibility: 6000 m
Scattered clouds at a height of 2000 ft
Overcast at a height of 4000 ft
Becoming
from 26 at 15 UTC to 26 at 16 UTC
Visibility: 2500 m
mist
Becoming
from 27 at 01 UTC to 27 at 02 UTC
Visibility: 6000 m

TAF: ZGKL 260909Z 2612/2712 VRB01MPS 6000 SCT020 OVC040 TX24/2708Z TN17/2622Z BECMG 2615/2616 2500 BR BECMG 2701/2702 6000

Weather observations and forecasts of more than 4000 airports (METAR and TAF reports).

The available stations are represented by yellow and red dots on the map.

Hover mouse over dot to see the name of the station.

Then click to see weather observations and forecasts.

To change the map : click on the green buttons with a black cross to zoom in, on the green button with a dash to zoom out, or on the green arrows for adjacent maps.


METAR-TAF: